createdAt,value
2022-11-23T00:00:00.890Z,8.82
2022-11-23T00:04:24.950Z,8.75
2022-11-23T00:08:48.080Z,8.35
2022-11-23T00:13:09.967Z,9.05
2022-11-23T00:17:32.396Z,8.45
2022-11-23T00:21:54.134Z,7.47
2022-11-23T00:26:17.438Z,10.23
2022-11-23T00:30:39.227Z,8.75
2022-11-23T00:35:01.078Z,9.27
2022-11-23T00:39:25.002Z,8.43
2022-11-23T00:43:47.256Z,8.63
2022-11-23T00:48:08.994Z,8.68
2022-11-23T00:52:30.992Z,9.40
2022-11-23T00:56:52.791Z,9.25
2022-11-23T01:01:16.282Z,8.80
2022-11-23T01:05:38.618Z,9.60
2022-11-23T01:10:00.613Z,9.82
2022-11-23T01:14:22.809Z,10.30
2022-11-23T01:18:44.684Z,10.32
2022-11-23T01:23:06.695Z,9.85
2022-11-23T01:27:28.892Z,10.18
2022-11-23T01:31:53.551Z,10.82
2022-11-23T01:36:23.642Z,9.18
2022-11-23T01:40:46.487Z,11.15
2022-11-23T01:45:40.854Z,10.20
2022-11-23T01:50:02.590Z,11.07
2022-11-23T01:54:34.418Z,11.95
2022-11-23T01:58:59.894Z,11.10
2022-11-23T02:03:24.271Z,11.57
2022-11-23T02:07:50.102Z,10.82
2022-11-23T02:12:13.990Z,11.52
2022-11-23T02:16:38.962Z,12.52
2022-11-23T02:21:02.537Z,12.82
2022-11-23T02:25:45.312Z,13.20
2022-11-23T02:30:08.035Z,12.38
2022-11-23T02:34:29.943Z,12.43
2022-11-23T02:38:52.729Z,12.00
2022-11-23T02:43:16.653Z,12.13
2022-11-23T02:47:40.872Z,11.90
2022-11-23T02:52:05.205Z,12.10
2022-11-23T02:56:27.497Z,11.63
2022-11-23T03:00:49.463Z,11.02
2022-11-23T03:05:14.906Z,10.82
2022-11-23T03:09:36.798Z,9.45
2022-11-23T03:13:59.022Z,9.95
2022-11-23T03:18:23.509Z,10.30
2022-11-23T03:22:45.655Z,9.52
2022-11-23T03:27:09.297Z,8.70
2022-11-23T03:31:31.708Z,8.73
2022-11-23T03:35:54.560Z,8.52
2022-11-23T03:40:20.840Z,8.43
2022-11-23T03:45:14.833Z,8.40
2022-11-23T03:49:36.957Z,8.18
2022-11-23T03:53:58.889Z,8.23
2022-11-23T03:58:20.901Z,7.30
2022-11-23T04:02:44.115Z,8.02
2022-11-23T04:07:25.706Z,6.85
2022-11-23T04:11:50.114Z,7.78
2022-11-23T04:16:13.701Z,8.27
2022-11-23T04:20:36.810Z,7.28
2022-11-23T04:24:58.844Z,8.05
2022-11-23T04:29:20.855Z,7.43
2022-11-23T04:33:47.627Z,7.60
2022-11-23T04:38:12.074Z,7.50
2022-11-23T04:42:33.968Z,8.32
2022-11-23T04:46:57.060Z,8.60
2022-11-23T04:51:19.638Z,7.75
2022-11-23T04:55:41.534Z,7.63
2022-11-23T05:00:05.160Z,8.93
2022-11-23T05:04:30.539Z,8.30
2022-11-23T05:08:52.915Z,7.50
2022-11-23T05:13:37.625Z,7.97
2022-11-23T05:18:07.409Z,7.45
2022-11-23T05:22:30.717Z,8.80
2022-11-23T05:26:56.215Z,8.20
2022-11-23T05:31:19.524Z,8.63
2022-11-23T05:35:43.243Z,9.30
2022-11-23T05:40:06.382Z,9.55
2022-11-23T05:44:28.449Z,9.65
2022-11-23T05:48:50.983Z,11.35
2022-11-23T05:53:13.198Z,11.02
2022-11-23T05:57:37.675Z,10.23
2022-11-23T06:02:01.195Z,9.65
2022-11-23T06:06:27.133Z,10.05
2022-11-23T06:10:49.179Z,9.63
2022-11-23T06:15:11.296Z,11.15
2022-11-23T06:19:35.178Z,10.68
2022-11-23T06:23:58.617Z,10.18
2022-11-23T06:28:21.148Z,11.13
2022-11-23T06:32:44.617Z,10.80
2022-11-23T06:37:06.825Z,11.25
2022-11-23T06:41:32.410Z,9.85
2022-11-23T06:45:57.244Z,10.95
2022-11-23T06:50:23.330Z,9.27
2022-11-23T06:54:46.230Z,9.43
2022-11-23T06:59:10.084Z,9.32
2022-11-23T07:03:32.054Z,8.85
2022-11-23T07:07:59.955Z,10.70
2022-11-23T07:12:22.899Z,10.25
2022-11-23T07:16:44.932Z,10.27
2022-11-23T07:21:07.013Z,10.85
2022-11-23T07:25:31.097Z,11.80
2022-11-23T07:29:54.128Z,8.95
2022-11-23T07:34:15.987Z,7.38
2022-11-23T07:38:38.513Z,5.80
2022-11-23T07:43:04.483Z,5.13
2022-11-23T07:47:26.775Z,5.40
2022-11-23T07:51:48.558Z,5.07
2022-11-23T07:56:10.452Z,4.30
2022-11-23T08:00:32.910Z,4.18
2022-11-23T08:04:55.668Z,3.85
2022-11-23T08:09:17.833Z,3.83
2022-11-23T08:13:39.399Z,4.50
2022-11-23T08:18:03.853Z,3.78
2022-11-23T08:22:27.199Z,3.50
2022-11-23T08:26:49.372Z,3.70
2022-11-23T08:31:13.047Z,4.32
2022-11-23T08:35:39.713Z,4.10
2022-11-23T08:40:01.657Z,7.43
2022-11-23T08:44:24.100Z,4.47
2022-11-23T08:48:45.833Z,3.75
2022-11-23T08:53:07.972Z,4.00
2022-11-23T08:57:30.149Z,3.97
2022-11-23T09:01:52.691Z,3.63
2022-11-23T09:06:14.738Z,3.78
2022-11-23T09:10:37.940Z,3.67
2022-11-23T09:15:00.050Z,3.42
2022-11-23T09:19:22.754Z,3.00
2022-11-23T09:23:44.867Z,3.70
2022-11-23T09:28:06.978Z,3.00
2022-11-23T09:32:29.288Z,3.55
2022-11-23T09:36:51.003Z,3.63
2022-11-23T09:41:35.647Z,4.07
2022-11-23T09:46:07.986Z,3.67
2022-11-23T09:50:53.148Z,4.18
2022-11-23T09:55:37.966Z,3.72
2022-11-23T10:00:08.791Z,3.33
2022-11-23T10:04:35.751Z,3.33
2022-11-23T10:09:39.347Z,3.08
2022-11-23T10:14:32.934Z,3.13
2022-11-23T10:19:39.461Z,4.47
2022-11-23T10:24:21.369Z,3.70
2022-11-23T10:28:45.498Z,3.72
2022-11-23T10:33:34.122Z,3.28
2022-11-23T10:38:19.786Z,3.13
2022-11-23T10:42:56.466Z,3.05
2022-11-23T10:48:00.710Z,2.88
2022-11-23T10:52:30.389Z,3.03
2022-11-23T10:56:54.173Z,2.58
2022-11-23T11:01:24.537Z,2.78
2022-11-23T11:06:08.482Z,2.78
2022-11-23T11:10:45.637Z,2.55
2022-11-23T11:15:12.066Z,2.28
2022-11-23T11:19:36.539Z,2.78
2022-11-23T11:24:15.756Z,2.10
2022-11-23T11:28:42.994Z,2.03
2022-11-23T11:33:36.260Z,1.88
2022-11-23T11:38:33.446Z,1.65
2022-11-23T11:43:13.109Z,2.25
2022-11-23T11:47:41.901Z,1.65
2022-11-23T11:52:14.498Z,2.70
2022-11-23T11:56:47.178Z,1.73
2022-11-23T12:01:56.415Z,2.00
2022-11-23T12:06:32.942Z,2.28
2022-11-23T12:11:02.058Z,1.80
2022-11-23T12:15:49.486Z,2.28
2022-11-23T12:20:49.760Z,2.92
2022-11-23T12:25:36.819Z,3.35
2022-11-23T12:30:02.081Z,4.13
2022-11-23T12:34:33.407Z,2.53
2022-11-23T12:39:12.100Z,2.33
2022-11-23T12:43:54.560Z,2.00
2022-11-23T12:48:37.848Z,2.40
2022-11-23T12:53:46.060Z,2.25
2022-11-23T12:58:31.372Z,2.20
2022-11-23T13:02:56.387Z,2.03
2022-11-23T13:07:59.849Z,2.35
2022-11-23T13:12:39.619Z,2.35
2022-11-23T13:17:12.245Z,2.67
2022-11-23T13:21:44.856Z,3.42
2022-11-23T13:26:25.122Z,2.28
2022-11-23T13:31:16.146Z,2.30
2022-11-23T13:35:52.707Z,1.65
2022-11-23T13:40:22.862Z,2.63
2022-11-23T13:44:44.686Z,2.05
2022-11-23T13:49:29.423Z,1.98
2022-11-23T13:54:04.032Z,2.45
2022-11-23T13:58:25.692Z,2.72
2022-11-23T14:02:47.600Z,2.30
2022-11-23T14:07:25.599Z,3.05
2022-11-23T14:12:20.128Z,3.17
2022-11-23T14:17:09.054Z,3.00
2022-11-23T14:21:55.854Z,3.03
2022-11-23T14:26:45.486Z,3.17
2022-11-23T14:31:29.089Z,2.90
2022-11-23T14:36:20.030Z,2.78
2022-11-23T14:41:26.031Z,2.90
2022-11-23T14:45:48.376Z,2.95
2022-11-23T14:50:29.567Z,3.20
2022-11-23T14:54:55.465Z,2.70
2022-11-23T14:59:32.505Z,3.58
2022-11-23T15:04:24.224Z,2.65
2022-11-23T15:09:15.306Z,2.85
2022-11-23T15:13:48.023Z,3.42
2022-11-23T15:18:09.617Z,3.28
2022-11-23T15:22:33.103Z,3.40
2022-11-23T15:27:09.497Z,3.80
2022-11-23T15:31:36.716Z,3.92
2022-11-23T15:35:58.355Z,3.97
2022-11-23T15:40:20.779Z,3.90
2022-11-23T15:44:47.452Z,4.43
2022-11-23T15:49:15.068Z,4.60
2022-11-23T15:53:50.602Z,4.50
2022-11-23T15:58:19.753Z,4.82
2022-11-23T16:02:41.737Z,5.47
2022-11-23T16:07:19.234Z,5.93
2022-11-23T16:11:45.290Z,6.68
2022-11-23T16:16:20.465Z,7.32
2022-11-23T16:21:05.426Z,7.63
2022-11-23T16:25:33.994Z,8.32
2022-11-23T16:30:01.444Z,8.30
2022-11-23T16:34:27.194Z,9.95
2022-11-23T16:38:49.231Z,9.80
2022-11-23T16:43:12.916Z,9.38
2022-11-23T16:47:35.384Z,9.85
2022-11-23T16:51:57.661Z,10.32
2022-11-23T16:56:23.736Z,10.32
2022-11-23T17:00:46.121Z,10.23
2022-11-23T17:05:25.401Z,10.07
2022-11-23T17:09:47.345Z,10.38
2022-11-23T17:14:18.447Z,11.32
2022-11-23T17:18:41.596Z,10.68
2022-11-23T17:23:03.576Z,11.23
2022-11-23T17:27:25.670Z,10.93
2022-11-23T17:32:03.961Z,11.73
2022-11-23T17:36:32.031Z,11.20
2022-11-23T17:40:54.396Z,12.55
2022-11-23T17:45:16.397Z,11.27
2022-11-23T17:49:38.208Z,9.95
2022-11-23T17:54:00.166Z,11.82
2022-11-23T17:58:22.513Z,11.38
2022-11-23T18:02:44.367Z,10.77
2022-11-23T18:07:06.899Z,14.15
2022-11-23T18:11:29.073Z,17.55
2022-11-23T18:15:51.467Z,11.60
2022-11-23T18:20:13.541Z,12.75
2022-11-23T18:24:35.662Z,12.63
2022-11-23T18:29:00.623Z,14.38
2022-11-23T18:33:24.009Z,12.77
2022-11-23T18:37:45.839Z,13.68
2022-11-23T18:42:07.898Z,12.30
2022-11-23T18:46:30.123Z,12.43
2022-11-23T18:50:54.088Z,12.73
2022-11-23T18:55:15.936Z,12.57
2022-11-23T19:04:19.677Z,13.30
2022-11-23T19:08:45.416Z,12.27
2022-11-23T19:13:07.148Z,13.05
2022-11-23T19:17:29.661Z,14.05
2022-11-23T19:21:51.730Z,12.95
2022-11-23T19:26:13.697Z,12.38
2022-11-23T19:30:35.718Z,13.18
2022-11-23T19:34:57.835Z,13.23
2022-11-23T19:39:19.925Z,12.77
2022-11-23T19:43:42.550Z,13.30
2022-11-23T19:48:04.353Z,12.63
2022-11-23T19:52:55.469Z,12.40
2022-11-23T19:57:12.493Z,13.40
2022-11-23T20:01:36.274Z,12.13
2022-11-23T20:06:01.459Z,12.77
2022-11-23T20:10:23.397Z,11.73
2022-11-23T20:14:45.310Z,13.35
2022-11-23T20:19:09.644Z,12.75
2022-11-23T20:23:31.366Z,13.07
2022-11-23T20:27:53.309Z,12.45
2022-11-23T20:32:15.885Z,14.82
2022-11-23T20:36:38.788Z,13.93
2022-11-23T20:41:00.962Z,13.23
2022-11-23T20:45:24.773Z,13.60
2022-11-23T20:49:46.968Z,13.68
2022-11-23T20:54:09.073Z,17.00
2022-11-23T20:58:31.462Z,15.93
2022-11-23T21:02:56.060Z,15.70
2022-11-23T21:07:17.884Z,14.80
2022-11-23T21:11:58.816Z,13.93
2022-11-23T21:16:21.715Z,12.50
2022-11-23T21:20:44.829Z,13.27
2022-11-23T21:25:08.577Z,13.57
2022-11-23T21:29:32.617Z,13.15
2022-11-23T21:33:55.542Z,13.75
2022-11-23T21:38:17.791Z,13.15
2022-11-23T21:42:39.756Z,13.20
2022-11-23T21:47:01.744Z,12.98
2022-11-23T21:51:27.009Z,12.40
2022-11-23T21:55:49.078Z,13.38
2022-11-23T22:00:11.667Z,13.68
2022-11-23T22:04:33.809Z,13.57
2022-11-23T22:08:57.945Z,13.68
2022-11-23T22:13:20.266Z,14.90
2022-11-23T22:17:42.262Z,13.93
2022-11-23T22:22:05.654Z,14.75
2022-11-23T22:26:27.983Z,14.48
2022-11-23T22:30:53.706Z,14.45
2022-11-23T22:35:15.852Z,13.68
2022-11-23T22:39:37.489Z,14.38
2022-11-23T22:44:00.216Z,15.43
2022-11-23T22:48:22.107Z,14.20
2022-11-23T22:52:44.024Z,13.98
2022-11-23T22:57:06.157Z,14.32
2022-11-23T23:01:31.667Z,15.45
2022-11-23T23:05:57.928Z,15.63
2022-11-23T23:10:19.693Z,13.55
2022-11-23T23:14:41.545Z,15.77
2022-11-23T23:19:03.728Z,15.48
2022-11-23T23:23:25.446Z,14.07
2022-11-23T23:27:47.376Z,15.23
2022-11-23T23:32:09.463Z,16.00
2022-11-23T23:36:31.220Z,16.60
2022-11-23T23:40:56.060Z,16.63
2022-11-23T23:45:17.903Z,16.30
2022-11-23T23:49:40.061Z,12.75
2022-11-23T23:54:02.194Z,12.48
2022-11-23T23:58:25.048Z,13.60
